createdAt,value
2018-06-29T00:02:14.958Z,8.10
2018-06-29T00:05:12.417Z,8.77
2018-06-29T00:07:41.884Z,7.87
2018-06-29T00:12:48.635Z,8.40
2018-06-29T00:15:17.730Z,7.70
2018-06-29T00:17:47.010Z,7.77
2018-06-29T00:20:16.355Z,8.23
2018-06-29T00:22:46.934Z,8.10
2018-06-29T00:25:16.113Z,8.70
2018-06-29T00:27:45.465Z,8.30
2018-06-29T00:30:14.884Z,8.10
2018-06-29T00:32:45.258Z,7.77
2018-06-29T00:35:14.602Z,7.87
2018-06-29T00:37:43.949Z,8.03
2018-06-29T00:40:13.273Z,7.77
2018-06-29T00:42:49.800Z,7.73
2018-06-29T00:45:19.137Z,7.43
2018-06-29T00:47:48.538Z,7.53
2018-06-29T00:50:17.872Z,7.37
2018-06-29T00:52:49.381Z,8.30
2018-06-29T00:55:18.863Z,8.90
2018-06-29T00:57:48.197Z,9.27
2018-06-29T01:00:17.560Z,8.50
2018-06-29T01:02:59.749Z,8.60
2018-06-29T01:05:29.114Z,8.40
2018-06-29T01:07:58.603Z,8.83
2018-06-29T01:10:28.043Z,8.30
2018-06-29T01:13:22.105Z,8.00
2018-06-29T01:15:51.465Z,7.63
2018-06-29T01:18:20.862Z,8.10
2018-06-29T01:20:50.173Z,7.67
2018-06-29T01:23:32.946Z,7.70
2018-06-29T01:26:02.257Z,8.13
2018-06-29T01:28:31.617Z,7.23
2018-06-29T01:31:00.994Z,7.50
2018-06-29T01:33:32.462Z,8.33
2018-06-29T01:36:01.770Z,7.73
2018-06-29T01:38:31.153Z,8.90
2018-06-29T01:41:00.649Z,8.27
2018-06-29T01:43:37.249Z,7.77
2018-06-29T01:46:06.605Z,7.73
2018-06-29T01:48:35.933Z,8.00
2018-06-29T01:51:05.272Z,8.80
2018-06-29T01:53:42.172Z,7.43
2018-06-29T01:56:11.591Z,7.60
2018-06-29T01:58:41.005Z,7.70
2018-06-29T02:01:10.425Z,7.97
2018-06-29T02:03:41.607Z,8.17
2018-06-29T02:06:10.910Z,7.33
2018-06-29T02:08:40.303Z,8.03
2018-06-29T02:11:09.761Z,7.37
2018-06-29T02:13:47.033Z,7.63
2018-06-29T02:16:16.413Z,7.33
2018-06-29T02:18:46.217Z,7.90
2018-06-29T02:21:15.662Z,7.70
2018-06-29T02:23:49.497Z,9.53
2018-06-29T02:26:18.793Z,9.13
2018-06-29T02:28:48.142Z,9.37
2018-06-29T02:31:17.554Z,8.53
2018-06-29T02:33:47.949Z,8.90
2018-06-29T02:36:17.329Z,7.90
2018-06-29T02:38:46.654Z,8.87
2018-06-29T02:41:15.948Z,9.03
2018-06-29T02:43:45.398Z,9.00
2018-06-29T02:46:14.731Z,7.90
2018-06-29T02:48:44.090Z,8.60
2018-06-29T02:51:13.527Z,8.50
2018-06-29T02:53:56.983Z,8.83
2018-06-29T02:56:26.425Z,7.77
2018-06-29T02:58:55.835Z,7.83
2018-06-29T03:01:25.197Z,7.90
2018-06-29T03:04:00.054Z,8.07
2018-06-29T03:06:29.841Z,7.50
2018-06-29T03:08:59.329Z,7.77
2018-06-29T03:11:28.658Z,8.87
2018-06-29T03:14:03.142Z,8.83
2018-06-29T03:16:32.533Z,9.00
2018-06-29T03:19:01.909Z,8.23
2018-06-29T03:21:31.392Z,9.20
2018-06-29T03:24:06.603Z,9.13
2018-06-29T03:26:36.101Z,9.27
2018-06-29T03:29:05.469Z,8.77
2018-06-29T03:31:34.863Z,7.93
2018-06-29T03:34:04.645Z,8.77
2018-06-29T03:36:33.993Z,8.83
2018-06-29T03:39:03.339Z,8.87
2018-06-29T03:41:33.708Z,9.00
2018-06-29T03:44:05.355Z,7.70
2018-06-29T03:46:35.736Z,7.70
2018-06-29T03:49:05.186Z,8.10
2018-06-29T03:51:34.525Z,8.83
2018-06-29T03:54:11.465Z,9.03
2018-06-29T03:56:40.865Z,9.83
2018-06-29T03:59:10.196Z,9.53
2018-06-29T04:01:39.669Z,9.30
2018-06-29T04:04:09.119Z,9.97
2018-06-29T04:06:38.526Z,9.33
2018-06-29T04:09:10.046Z,9.57
2018-06-29T04:11:39.386Z,8.87
2018-06-29T04:14:08.846Z,10.30
2018-06-29T04:16:38.788Z,9.23
2018-06-29T04:19:08.319Z,8.63
2018-06-29T04:21:37.670Z,8.20
2018-06-29T04:24:19.792Z,8.30
2018-06-29T04:26:49.166Z,8.37
2018-06-29T04:29:18.598Z,8.43
2018-06-29T04:31:47.917Z,8.33
2018-06-29T04:34:24.792Z,7.50
2018-06-29T04:36:54.155Z,7.90
2018-06-29T04:39:23.580Z,8.17
2018-06-29T04:41:53.129Z,7.40
2018-06-29T04:44:29.754Z,6.93
2018-06-29T04:46:59.142Z,7.33
2018-06-29T04:49:28.486Z,8.07
2018-06-29T04:51:57.864Z,8.30
2018-06-29T04:54:34.966Z,8.13
2018-06-29T04:57:07.544Z,7.37
2018-06-29T04:59:36.903Z,7.93
2018-06-29T05:02:06.321Z,7.73
2018-06-29T05:04:35.817Z,7.37
2018-06-29T05:07:05.171Z,7.50
2018-06-29T05:09:34.553Z,6.73
2018-06-29T05:12:03.937Z,6.53
2018-06-29T05:14:41.057Z,6.47
2018-06-29T05:17:10.417Z,6.80
2018-06-29T05:19:39.756Z,6.77
2018-06-29T05:22:09.193Z,6.80
2018-06-29T05:24:42.653Z,6.70
2018-06-29T05:27:12.022Z,6.50
2018-06-29T05:29:41.429Z,6.37
2018-06-29T05:32:10.802Z,6.30
2018-06-29T05:34:57.342Z,5.80
2018-06-29T05:37:26.681Z,5.47
2018-06-29T05:39:56.206Z,5.20
2018-06-29T05:42:25.619Z,5.50
2018-06-29T05:44:54.961Z,5.33
2018-06-29T05:47:24.681Z,5.37
2018-06-29T05:49:54.080Z,5.20
2018-06-29T05:52:23.510Z,5.80
2018-06-29T05:55:14.001Z,4.53
2018-06-29T05:57:43.697Z,6.83
2018-06-29T06:00:13.073Z,5.50
2018-06-29T06:02:45.862Z,6.03
2018-06-29T06:05:14.968Z,5.73
2018-06-29T06:07:44.402Z,5.57
2018-06-29T06:10:13.904Z,5.83
2018-06-29T06:12:50.697Z,5.00
2018-06-29T06:15:20.014Z,4.70
2018-06-29T06:17:49.657Z,5.03
2018-06-29T06:20:19.013Z,5.33
2018-06-29T06:22:47.977Z,3.70
2018-06-29T06:25:17.069Z,4.00
2018-06-29T06:27:46.374Z,3.93
2018-06-29T06:30:15.696Z,3.13
2018-06-29T06:32:45.186Z,3.63
2018-06-29T06:35:14.605Z,3.30
2018-06-29T06:37:44.020Z,3.40
2018-06-29T06:40:13.376Z,3.47
2018-06-29T06:42:59.630Z,3.17
2018-06-29T06:45:29.030Z,3.60
2018-06-29T06:47:58.487Z,3.30
2018-06-29T06:50:27.828Z,3.70
2018-06-29T06:53:06.848Z,3.40
2018-06-29T06:55:35.932Z,3.40
2018-06-29T06:58:05.290Z,3.30
2018-06-29T07:00:34.645Z,3.13
2018-06-29T07:03:04.124Z,3.43
2018-06-29T07:05:33.538Z,3.33
2018-06-29T07:08:02.971Z,3.17
2018-06-29T07:10:32.734Z,2.97
2018-06-29T07:13:03.166Z,3.00
2018-06-29T07:15:32.510Z,3.20
2018-06-29T07:18:02.002Z,3.37
2018-06-29T07:20:31.317Z,3.00
2018-06-29T07:23:25.074Z,2.70
2018-06-29T07:25:54.420Z,2.90
2018-06-29T07:28:23.765Z,2.77
2018-06-29T07:30:53.190Z,2.77
2018-06-29T07:33:22.654Z,3.10
2018-06-29T07:35:52.042Z,2.75
2018-06-29T07:38:21.359Z,3.00
2018-06-29T07:40:50.662Z,2.98
2018-06-29T07:43:20.103Z,3.35
2018-06-29T07:45:49.503Z,2.80
2018-06-29T07:48:18.923Z,2.65
2018-06-29T07:50:48.385Z,2.60
2018-06-29T07:53:19.784Z,2.98
2018-06-29T07:55:49.157Z,2.92
2018-06-29T07:58:18.732Z,3.12
2018-06-29T08:00:48.146Z,2.90
2018-06-29T08:03:22.382Z,3.08
2018-06-29T08:05:51.752Z,2.87
2018-06-29T08:08:21.137Z,3.12
2018-06-29T08:10:50.545Z,2.92
2018-06-29T08:13:22.032Z,3.30
2018-06-29T08:15:52.230Z,3.10
2018-06-29T08:18:21.570Z,2.77
2018-06-29T08:20:51.537Z,3.12
2018-06-29T08:23:23.438Z,2.62
2018-06-29T08:25:52.818Z,3.12
2018-06-29T08:28:22.134Z,3.00
2018-06-29T08:30:51.782Z,3.40
2018-06-29T08:33:34.557Z,2.95
2018-06-29T08:36:04.019Z,2.87
2018-06-29T08:38:33.356Z,2.60
2018-06-29T08:41:02.673Z,2.72
2018-06-29T08:43:33.141Z,2.90
2018-06-29T08:46:02.447Z,2.85
2018-06-29T08:48:31.770Z,2.77
2018-06-29T08:51:01.282Z,2.50
2018-06-29T08:53:44.917Z,3.02
2018-06-29T08:56:13.968Z,2.55
2018-06-29T08:58:43.379Z,2.83
2018-06-29T09:01:12.575Z,3.17
2018-06-29T09:03:42.031Z,2.60
2018-06-29T09:06:11.462Z,2.62
2018-06-29T09:08:40.945Z,2.80
2018-06-29T09:11:10.331Z,2.58
2018-06-29T09:13:49.373Z,2.67
2018-06-29T09:16:18.998Z,2.70
2018-06-29T09:18:48.721Z,3.02
2018-06-29T09:21:18.099Z,2.80
2018-06-29T09:23:47.545Z,2.80
2018-06-29T09:26:16.981Z,2.80
2018-06-29T09:28:46.396Z,2.70
2018-06-29T09:31:18.492Z,2.65
2018-06-29T09:33:55.534Z,2.52
2018-06-29T09:36:24.976Z,3.12
2018-06-29T09:38:54.253Z,2.40
2018-06-29T09:41:23.616Z,2.60
2018-06-29T09:43:55.006Z,2.47
2018-06-29T09:46:24.496Z,2.95
2018-06-29T09:48:53.842Z,2.75
2018-06-29T09:51:23.317Z,2.55
2018-06-29T09:54:08.015Z,2.80
2018-06-29T09:56:37.346Z,2.70
2018-06-29T09:59:07.080Z,2.95
2018-06-29T10:01:36.585Z,2.60
2018-06-29T10:04:09.245Z,2.75
2018-06-29T10:06:38.661Z,2.92
2018-06-29T10:09:11.075Z,2.80
2018-06-29T10:11:40.489Z,2.67
2018-06-29T10:14:10.146Z,2.62
2018-06-29T10:16:39.529Z,2.62
2018-06-29T10:19:08.957Z,2.80
2018-06-29T10:21:38.292Z,2.50
2018-06-29T10:24:07.727Z,2.80
2018-06-29T10:26:37.098Z,2.55
2018-06-29T10:29:06.466Z,2.62
2018-06-29T10:31:35.857Z,2.60
2018-06-29T10:34:05.354Z,2.40
2018-06-29T10:36:34.721Z,2.75
2018-06-29T10:39:06.348Z,2.22
2018-06-29T10:41:35.759Z,2.47
2018-06-29T10:44:12.340Z,2.40
2018-06-29T10:46:42.402Z,2.35
2018-06-29T10:49:11.938Z,2.40
2018-06-29T10:51:41.279Z,2.35
2018-06-29T10:54:19.098Z,2.40
2018-06-29T10:56:48.520Z,2.67
2018-06-29T10:59:17.870Z,2.35
2018-06-29T11:01:47.245Z,2.17
2018-06-29T11:04:33.114Z,2.40
2018-06-29T11:07:02.467Z,2.00
2018-06-29T11:09:31.929Z,2.22
2018-06-29T11:12:01.352Z,2.30
2018-06-29T11:14:30.818Z,2.25
2018-06-29T11:17:00.212Z,2.30
2018-06-29T11:19:29.734Z,2.30
2018-06-29T11:21:59.089Z,2.20
2018-06-29T11:24:30.504Z,2.50
2018-06-29T11:26:59.967Z,2.20
2018-06-29T11:29:29.830Z,2.17
2018-06-29T11:31:59.530Z,1.95
2018-06-29T11:34:39.857Z,2.17
2018-06-29T11:37:09.254Z,2.30
2018-06-29T11:39:38.661Z,2.27
2018-06-29T11:42:08.029Z,2.33
2018-06-29T11:44:39.329Z,1.92
2018-06-29T11:47:08.821Z,2.15
2018-06-29T11:49:38.297Z,1.90
2018-06-29T11:52:07.749Z,2.20
2018-06-29T11:54:41.437Z,2.27
2018-06-29T11:57:13.891Z,2.02
2018-06-29T11:59:44.062Z,2.10
2018-06-29T12:02:13.976Z,2.12
2018-06-29T12:04:43.381Z,2.30
2018-06-29T12:07:12.839Z,1.95
2018-06-29T12:09:42.182Z,1.77
2018-06-29T12:12:11.618Z,2.08
2018-06-29T12:15:00.325Z,2.20
2018-06-29T12:17:29.774Z,2.17
2018-06-29T12:19:59.202Z,2.15
2018-06-29T12:22:28.634Z,2.02
2018-06-29T12:24:57.918Z,2.12
2018-06-29T12:27:27.661Z,2.20
2018-06-29T12:29:57.066Z,2.02
2018-06-29T12:32:27.078Z,2.15
2018-06-29T12:34:57.061Z,1.87
2018-06-29T12:37:26.980Z,1.98
2018-06-29T12:39:56.334Z,1.90
2018-06-29T12:42:26.552Z,1.90
2018-06-29T12:44:56.761Z,1.90
2018-06-29T12:47:29.578Z,2.08
2018-06-29T12:49:59.949Z,2.27
2018-06-29T12:52:31.649Z,1.87
2018-06-29T12:55:01.073Z,1.98
2018-06-29T12:57:30.537Z,2.00
2018-06-29T12:59:59.874Z,2.00
2018-06-29T13:02:29.629Z,2.00
2018-06-29T13:04:59.045Z,1.90
2018-06-29T13:07:28.304Z,2.12
2018-06-29T13:09:57.678Z,2.00
2018-06-29T13:12:26.990Z,2.00
2018-06-29T13:14:57.095Z,1.72
2018-06-29T13:17:26.518Z,2.22
2018-06-29T13:19:55.921Z,2.10
2018-06-29T13:22:25.418Z,2.10
2018-06-29T13:24:54.692Z,1.90
2018-06-29T13:27:23.953Z,2.00
2018-06-29T13:29:53.379Z,1.72
2018-06-29T13:32:22.785Z,1.72
2018-06-29T13:35:00.666Z,1.80
2018-06-29T13:37:30.138Z,1.70
2018-06-29T13:39:59.573Z,1.50
2018-06-29T13:42:28.952Z,1.90
2018-06-29T13:44:58.294Z,1.82
2018-06-29T13:47:27.695Z,1.70
2018-06-29T13:49:57.080Z,1.67
2018-06-29T13:52:26.496Z,2.17
2018-06-29T13:54:55.904Z,1.80
2018-06-29T13:57:44.001Z,1.85
2018-06-29T14:00:13.375Z,1.92
2018-06-29T14:02:43.819Z,2.00
2018-06-29T14:05:13.542Z,1.82
2018-06-29T14:07:42.845Z,1.45
2018-06-29T14:10:12.207Z,2.02
2018-06-29T14:12:41.645Z,1.82
2018-06-29T14:15:11.050Z,1.70
2018-06-29T14:17:40.450Z,1.98
2018-06-29T14:20:09.815Z,1.80
2018-06-29T14:22:39.353Z,1.80
2018-06-29T14:25:08.934Z,1.60
2018-06-29T14:27:38.284Z,1.70
2018-06-29T14:30:07.948Z,1.95
2018-06-29T14:32:38.505Z,1.50
2018-06-29T14:35:07.869Z,1.65
2018-06-29T14:37:37.261Z,1.75
2018-06-29T14:40:06.678Z,1.42
2018-06-29T14:42:36.051Z,1.60
2018-06-29T14:45:05.465Z,1.70
2018-06-29T14:47:34.862Z,1.67
2018-06-29T14:50:04.326Z,2.25
2018-06-29T14:52:48.771Z,1.85
2018-06-29T14:55:18.100Z,2.02
2018-06-29T14:57:47.189Z,2.15
2018-06-29T15:00:16.267Z,1.80
2018-06-29T15:03:04.273Z,1.80
2018-06-29T15:05:33.370Z,2.05
2018-06-29T15:08:02.440Z,1.80
2018-06-29T15:10:31.537Z,1.75
2018-06-29T15:13:01.701Z,1.75
2018-06-29T15:15:30.808Z,1.70
2018-06-29T15:17:59.680Z,1.70
2018-06-29T15:20:28.765Z,1.60
2018-06-29T15:22:57.725Z,1.85
2018-06-29T15:25:26.916Z,1.77
2018-06-29T15:27:55.947Z,2.30
2018-06-29T15:30:25.481Z,1.95
2018-06-29T15:33:04.797Z,1.90
2018-06-29T15:35:34.066Z,1.85
2018-06-29T15:38:03.436Z,1.77
2018-06-29T15:40:32.817Z,2.05
2018-06-29T15:43:02.217Z,2.00
2018-06-29T15:45:31.770Z,1.90
2018-06-29T15:48:01.185Z,2.15
2018-06-29T15:50:30.550Z,4.15
2018-06-29T15:53:05.214Z,3.42
2018-06-29T15:55:34.553Z,7.10
2018-06-29T15:58:03.926Z,3.50
2018-06-29T16:00:33.381Z,2.80
2018-06-29T16:03:03.742Z,2.10
2018-06-29T16:05:33.101Z,2.17
2018-06-29T16:08:02.526Z,2.00
2018-06-29T16:10:31.856Z,1.90
2018-06-29T16:13:02.234Z,1.62
2018-06-29T16:15:31.825Z,1.70
2018-06-29T16:18:01.268Z,2.00
2018-06-29T16:20:30.677Z,1.85
2018-06-29T16:23:00.087Z,2.00
2018-06-29T16:25:29.425Z,2.00
2018-06-29T16:27:58.777Z,2.40
2018-06-29T16:30:28.163Z,2.08
2018-06-29T16:33:05.249Z,2.12
2018-06-29T16:35:34.649Z,2.80
2018-06-29T16:38:03.957Z,2.60
2018-06-29T16:40:33.226Z,2.80
2018-06-29T16:43:02.699Z,3.05
2018-06-29T16:45:32.209Z,2.52
2018-06-29T16:48:01.547Z,2.83
2018-06-29T16:50:30.954Z,1.85
2018-06-29T16:53:01.298Z,2.02
2018-06-29T16:55:30.740Z,1.90
2018-06-29T16:58:00.183Z,1.72
2018-06-29T17:00:29.551Z,1.90
2018-06-29T17:03:06.865Z,2.27
2018-06-29T17:05:36.302Z,2.30
2018-06-29T17:08:06.503Z,2.15
2018-06-29T17:10:35.873Z,2.08
2018-06-29T17:13:24.481Z,2.15
2018-06-29T17:15:53.569Z,2.05
2018-06-29T17:18:22.719Z,2.35
2018-06-29T17:20:51.844Z,2.20
2018-06-29T17:23:28.377Z,1.72
2018-06-29T17:25:57.466Z,2.42
2018-06-29T17:28:26.569Z,2.05
2018-06-29T17:30:55.753Z,2.77
2018-06-29T17:33:32.053Z,2.02
2018-06-29T17:35:55.413Z,1.95
2018-06-29T17:38:24.762Z,2.17
2018-06-29T17:40:54.147Z,2.05
2018-06-29T17:43:25.348Z,2.35
2018-06-29T17:45:54.440Z,2.22
2018-06-29T17:48:23.901Z,2.25
2018-06-29T17:50:53.293Z,2.30
2018-06-29T17:53:27.514Z,2.60
2018-06-29T17:55:56.903Z,2.67
2018-06-29T17:58:26.381Z,2.75
2018-06-29T18:00:55.436Z,2.15
2018-06-29T18:03:28.748Z,2.33
2018-06-29T18:05:58.122Z,2.25
2018-06-29T18:08:27.466Z,2.45
2018-06-29T18:10:56.536Z,2.72
2018-06-29T18:13:26.945Z,2.05
2018-06-29T18:15:56.274Z,2.70
2018-06-29T18:18:25.595Z,2.42
2018-06-29T18:20:54.970Z,3.00
2018-06-29T18:23:34.246Z,2.52
2018-06-29T18:26:03.505Z,2.75
2018-06-29T18:28:32.926Z,2.80
2018-06-29T18:31:02.241Z,3.00
2018-06-29T18:33:33.233Z,2.30
2018-06-29T18:36:02.647Z,3.25
2018-06-29T18:38:32.804Z,2.67
2018-06-29T18:41:02.521Z,2.67
2018-06-29T18:43:44.291Z,2.60
2018-06-29T18:46:13.825Z,3.10
2018-06-29T18:48:45.390Z,2.60
2018-06-29T18:51:14.708Z,2.58
2018-06-29T18:54:04.825Z,2.77
2018-06-29T18:56:33.820Z,2.60
2018-06-29T18:59:03.223Z,3.00
2018-06-29T19:01:32.666Z,3.30
2018-06-29T19:04:02.494Z,2.90
2018-06-29T19:06:31.889Z,2.80
2018-06-29T19:09:01.272Z,3.45
2018-06-29T19:11:31.393Z,3.12
2018-06-29T19:14:03.352Z,3.30
2018-06-29T19:16:32.440Z,3.45
2018-06-29T19:21:38.418Z,3.35
2018-06-29T19:24:10.418Z,3.40
2018-06-29T19:26:39.750Z,3.83
2018-06-29T19:29:09.116Z,3.52
2018-06-29T19:31:38.264Z,3.70
2018-06-29T19:34:07.391Z,3.80
2018-06-29T19:36:37.255Z,3.27
2018-06-29T19:39:09.135Z,3.00
2018-06-29T19:41:39.240Z,3.60
2018-06-29T19:44:10.084Z,3.20
2018-06-29T19:46:45.494Z,3.40
2018-06-29T19:49:15.041Z,3.23
2018-06-29T19:51:44.112Z,3.47
2018-06-29T19:54:13.342Z,3.23
2018-06-29T19:56:42.707Z,3.13
2018-06-29T19:59:12.130Z,3.43
2018-06-29T20:01:41.502Z,3.60
2018-06-29T20:05:40.337Z,3.57
2018-06-29T20:08:09.777Z,3.80
2018-06-29T20:10:39.160Z,3.77
2018-06-29T20:13:23.159Z,4.20
2018-06-29T20:15:52.974Z,4.30
2018-06-29T20:18:22.454Z,3.33
2018-06-29T20:20:51.805Z,3.83
2018-06-29T20:23:28.629Z,3.63
2018-06-29T20:25:57.948Z,3.57
2018-06-29T20:28:27.257Z,4.40
2018-06-29T20:30:56.702Z,3.70
2018-06-29T20:33:29.703Z,3.77
2018-06-29T20:35:59.057Z,4.30
2018-06-29T20:38:28.159Z,4.27
2018-06-29T20:40:57.426Z,5.17
2018-06-29T20:43:28.897Z,4.20
2018-06-29T20:45:58.247Z,3.83
2018-06-29T20:48:27.614Z,4.43
2018-06-29T20:50:56.985Z,4.50
2018-06-29T20:53:26.440Z,4.73
2018-06-29T20:55:55.913Z,4.33
2018-06-29T20:58:25.217Z,5.50
2018-06-29T21:00:54.649Z,5.70
2018-06-29T21:03:25.076Z,5.10
2018-06-29T21:05:54.113Z,5.37
2018-06-29T21:08:23.437Z,4.47
2018-06-29T21:10:52.865Z,4.33
2018-06-29T21:13:30.055Z,4.53
2018-06-29T21:15:59.394Z,4.70
2018-06-29T21:18:28.925Z,3.70
2018-06-29T21:20:58.237Z,4.27
2018-06-29T21:23:27.653Z,4.20
2018-06-29T21:25:57.025Z,4.13
2018-06-29T21:28:26.424Z,4.50
2018-06-29T21:30:55.488Z,4.20
2018-06-29T21:33:38.946Z,3.87
2018-06-29T21:36:08.629Z,3.97
2018-06-29T21:38:38.037Z,4.20
2018-06-29T21:41:07.855Z,4.20
2018-06-29T21:43:38.477Z,3.97
2018-06-29T21:46:07.829Z,4.57
2018-06-29T21:48:38.693Z,4.33
2018-06-29T21:51:08.130Z,4.63
2018-06-29T21:53:48.385Z,4.70
2018-06-29T21:56:17.673Z,4.10
2018-06-29T21:58:47.083Z,4.50
2018-06-29T22:01:16.130Z,4.80
2018-06-29T22:03:53.241Z,4.90
2018-06-29T22:06:22.619Z,4.77
2018-06-29T22:08:52.021Z,4.20
2018-06-29T22:14:10.021Z,4.77
2018-06-29T22:16:39.597Z,5.03
2018-06-29T22:19:09.969Z,4.60
2018-06-29T22:21:39.305Z,4.90
2018-06-29T22:24:09.749Z,4.80
2018-06-29T22:26:42.034Z,4.73
2018-06-29T22:29:11.354Z,4.50
2018-06-29T22:31:40.778Z,5.13
2018-06-29T22:34:12.201Z,5.30
2018-06-29T22:36:41.541Z,5.10
2018-06-29T22:39:12.146Z,5.37
2018-06-29T22:41:42.398Z,5.43
2018-06-29T22:44:19.385Z,5.20
2018-06-29T22:46:48.706Z,5.27
2018-06-29T22:49:18.093Z,4.90
2018-06-29T22:51:47.473Z,5.10
2018-06-29T22:54:24.268Z,5.47
2018-06-29T22:56:53.669Z,4.97
2018-06-29T22:59:23.001Z,5.37
2018-06-29T23:01:52.353Z,5.07
2018-06-29T23:04:36.069Z,5.37
2018-06-29T23:07:05.364Z,5.33
2018-06-29T23:09:35.063Z,6.10
2018-06-29T23:12:04.429Z,6.27
2018-06-29T23:14:38.094Z,5.00
2018-06-29T23:17:07.581Z,5.93
2018-06-29T23:19:37.181Z,5.70
2018-06-29T23:22:06.941Z,5.30
2018-06-29T23:24:36.301Z,5.40
2018-06-29T23:27:05.631Z,5.30
2018-06-29T23:29:35.649Z,5.50
2018-06-29T23:32:05.141Z,5.33
2018-06-29T23:34:36.496Z,5.63
2018-06-29T23:37:05.832Z,5.77
2018-06-29T23:39:35.152Z,5.70
2018-06-29T23:42:04.480Z,5.10
2018-06-29T23:44:34.095Z,5.50
2018-06-29T23:47:03.492Z,4.63
2018-06-29T23:49:33.112Z,5.00
2018-06-29T23:52:02.508Z,4.90
2018-06-29T23:54:33.833Z,5.30
2018-06-29T23:57:03.176Z,4.90
2018-06-29T23:59:32.518Z,4.30
